FLL weather

Fort Lauderdale Hollywood International Airport
Fort Lauderdale, Florida, United States

Public forecast

Using degrees Fahrenheit for public forecast. Weather courtesy of forecast.io.

METAR (pilot weather report)

Retrieved 2018/10/17 01:53 UTC (1 hour ago):

KFLL 170153Z 10015KT 10SM SCT023 28/26 A3007 RMK AO2 SLP183 T02830256 $

TAF (pilot weather forecast)

Forecast is more than 12 hours old.

Retrieved 2018/10/16 00:44 UTC (1 day ago):

TAF KFLL 162339Z 1700/1806 09011KT P6SM SCT025 FM170600 09010KT P6SM VCSH SCT025 FM171400 10014KT P6SM SCT025 FM180000 09011KT P6SM SCT025